Terminal Aerodrome Forecast
Issued by NWS

Home | Current Version | Previous Version | Text Only | Print | Product List | Glossary On
Versions: 1 2 3 4 5 6 7 8 9 10 11 12 13 14 15 16 17 18
000
FTUS44 KLUB 311802 CCA
TAFCDS
TAF COR
KCDS 311802Z 3118/0118 08007KT P6SM SCT030 SCT150
     FM010000 14012KT 5SM -TSRA SCT025CB BKN040
     FM010800 01010KT P6SM -SHRA OVC025=

USA.gov is the U.S. government's official web portal to all federal, state and local government web resources and services.